Terminal Aerodrome Forecast
Issued by NWS

Home | Current Version | Previous Version | Text Only | Print | Product List | Glossary On
Versions: 1 2 3 4 5 6 7 8 9 10 11 12 13 14 15 16 17 18 19 20 21 22 23 24
000
FTUS45 KVEF 230530
TAFLAS
TAF
KLAS 230530Z 2306/2412 14010KT P6SM FEW140
     FM230700 20010G18KT P6SM BKN120
     FM231700 30012G18KT P6SM SCT080 BKN120
     FM232000 31012KT P6SM VCSH SCT070 BKN100
     FM240300 32010KT P6SM SCT100
     FM240600 31008KT P6SM SKC=

USA.gov is the U.S. government's official web portal to all federal, state and local government web resources and services.